This is the latest recevied weather packets stored in our database for station/object KD4EG. If no packets are shown the sender has not sent any weather packets the latest 10 day(s).
| Time | Temp. | Humidity | Pressure | Rain* | Wind** | Luminosity | Snow |
|---|---|---|---|---|---|---|---|
| 1777750406 | 17.22° C | 33% | 1014 hPa | 0 mm | - | 700 W/m² | - |
| 1777750101 | 16.67° C | 34% | 1014 hPa | 0 mm | - | 674 W/m² | - |
| 1777749799 | 17.22° C | 35% | 1013.9 hPa | 0 mm | - | 652 W/m² | - |
| 1777749496 | 16.67° C | 36% | 1013.8 hPa | 0 mm | - | 679 W/m² | - |
| 1777749194 | 16.11° C | 39% | 1014.2 hPa | 0 mm | - | 651 W/m² | - |
| 1777748891 | 16.67° C | 36% | 1014.1 hPa | 0 mm | - | 677 W/m² | - |
| 1777748588 | 17.22° C | 36% | 1014.1 hPa | 0 mm | - | 426 W/m² | - |
| 1777748283 | 17.78° C | 35% | 1013.9 hPa | 0 mm | - | 736 W/m² | - |
| 1777747979 | 16.67° C | 38% | 1014.2 hPa | 0 mm | - | 734 W/m² | - |
| 1777747676 | 16.11° C | 37% | 1014.3 hPa | 0 mm | - | 713 W/m² | - |
| 1777747371 | 15.56° C | 37% | 1014.2 hPa | 0 mm | - | 207 W/m² | - |
| 1777747069 | 16.11° C | 36% | 1014.5 hPa | 0 mm | - | 209 W/m² | - |
| 1777746765 | 16.67° C | 37% | 1014.3 hPa | 0 mm | - | 758 W/m² | - |
| 1777746460 | 16.11° C | 36% | 1014.4 hPa | 0 mm | - | 707 W/m² | - |
| 1777746155 | 15° C | 37% | 1014.6 hPa | 0 mm | - | 480 W/m² | - |
| 1777745852 | 15° C | 37% | 1014.5 hPa | 0 mm | - | 514 W/m² | - |
| 1777745552 | 15.56° C | 39% | 1014.6 hPa | 0 mm | - | 527 W/m² | - |
| 1777745248 | 15.56° C | 37% | 1014.8 hPa | 0 mm | - | 645 W/m² | - |
| 1777744946 | 16.67° C | 38% | 1014.8 hPa | 0 mm | - | 614 W/m² | - |
| 1777744646 | 16.11° C | 39% | 1014.7 hPa | 0 mm | - | 776 W/m² | - |
| 1777744341 | 14.44° C | 42% | 1015.1 hPa | 0 mm | - | 760 W/m² | - |
| 1777744038 | 15.56° C | 38% | 1015.1 hPa | 0 mm | - | 554 W/m² | - |
| 1777743735 | 15° C | 41% | 1015.2 hPa | 0 mm | - | 779 W/m² | - |
| 1777743432 | 15° C | 39% | 1015.2 hPa | 0 mm | - | 601 W/m² | - |
| 1777743129 | 15° C | 41% | 1015.2 hPa | 0 mm | - | 586 W/m² | - |
* Rain latest hour (hover to see other rain measurements)
** Current wind speed in m/s (hover to see current wind gust speed)